Mogollon, New Mexico
Current Conditions -  °F | °C
As of 7:15 PM on Monday 22 Dec 2014 (Local Time) from KSVC Reporting Station
Clear Clear  
Wind Chill: 38°   Ceiling: Unl
Heat Index: 45°   Visibility: 10mi
Dew Point: 34°   Wind: 14mph
Humidity: 66%   Direction: 330°NNW
Pressure: 29.88"   Gusts: NA
Location:  33.3051°N, 108.67°W
Report Text: KSVC 230215Z AUTO 33012KT 10SM CLR 07/01 A2988 RMK AO2
Loading
Personal Weather Stations






























Interactive Weather Map New forecast layout! Learn more

10-Day Weather Forecast

Advertisements
Track Severe Weather on mobile